^^
Grace C. Lehan Memorial Weather Station Historical Data
Daily Summary for May 24, 2021 Units:  Both    English   Metric
Daily Weekly Monthly Yearly
  High: Low: Average:
Temperature: 29.4 °F /  -1.4 °C 25.1 °F /  -3.8 °C 27 °F /  -2.8 °C
Dew Point: 25.4 °F /  -3.7 °C 15.8 °F /  -9 °C 23.3 °F /  -4.8 °C
Humidity: 90% 57.1% 86%
Wind Speed: 2mph /  3.2km/h - 0.2mph /  0.3km/h
Wind Gust: 7mph /  11.3km/h - -
Wind- - ESE
Pressure: 30.19 in /  1022.2 hPa 30.00 in /  1015.8 hPa -
Precipitation: 0.00 in /  0 mm    
 
 
Tabular Data for May 24, 2021
Time Temperature Dew Point Pressure Wind Wind Speed Wind Gust Humidity Rainfall Rate (Hourly) solar
00:04 29 °F /  -1.7 °C 15.8 °F /  -9 °C 30.16in /  1021.2hPa NW 0.4mph /  0.6km/h 4mph /  6.4km/h 57.1% 0.00in /  0mm 0 W/m2
00:09 28.8 °F /  -1.8 °C 16.2 °F /  -8.8 °C 30.16in /  1021.2hPa Calm   4mph /  6.4km/h 58.8% 0.00in /  0mm 0 W/m2
00:14 28.6 °F /  -1.9 °C 16.7 °F /  -8.5 °C 30.16in /  1021.2hPa Calm   4mph /  6.4km/h 60.6% 0.00in /  0mm 0 W/m2
00:19 28.5 °F /  -1.9 °C 17.5 °F /  -8.1 °C 30.16in /  1021.2hPa NW 0.1mph /  0.2km/h 4mph /  6.4km/h 63% 0.00in /  0mm 0 W/m2
00:24 28.4 °F /  -2 °C 18.1 °F /  -7.7 °C 30.16in /  1021.2hPa NW 0.4mph /  0.6km/h 4mph /  6.4km/h 64.8% 0.00in /  0mm 0 W/m2
00:29 28.3 °F /  -2.1 °C 18.5 °F /  -7.5 °C 30.16in /  1021.2hPa Calm   4mph /  6.4km/h 66.2% 0.00in /  0mm 0 W/m2
00:34 28.1 °F /  -2.2 °C 18.9 °F /  -7.3 °C 30.17in /  1021.6hPa Calm   4mph /  6.4km/h 68% 0.00in /  0mm 0 W/m2
00:39 27.9 °F /  -2.3 °C 19.5 °F /  -6.9 °C 30.16in /  1021.2hPa Calm   1mph /  1.6km/h 70.2% 0.00in /  0mm 0 W/m2
00:44 27.7 °F /  -2.4 °C 19.9 °F /  -6.7 °C 30.17in /  1021.6hPa NW 0.2mph /  0.3km/h 2mph /  3.2km/h 71.9% 0.00in /  0mm 0 W/m2
00:49 27.5 °F /  -2.5 °C 20.1 °F /  -6.6 °C 30.17in /  1021.6hPa Calm   2mph /  3.2km/h 73.3% 0.00in /  0mm 0 W/m2
00:54 27.3 °F /  -2.6 °C 20.3 °F /  -6.5 °C 30.17in /  1021.6hPa Calm   2mph /  3.2km/h 74.6% 0.00in /  0mm 0 W/m2
00:59 27.1 °F /  -2.7 °C 20.5 °F /  -6.4 °C 30.17in /  1021.6hPa Calm   2mph /  3.2km/h 75.7% 0.00in /  0mm 0 W/m2
01:04 26.9 °F /  -2.8 °C 20.6 °F /  -6.3 °C 30.17in /  1021.6hPa Calm   2mph /  3.2km/h 76.9% 0.00in /  0mm 0 W/m2
01:09 26.7 °F /  -2.9 °C 20.9 °F /  -6.2 °C 30.17in /  1021.6hPa NW 0.2mph /  0.3km/h 2mph /  3.2km/h 78.4% 0.00in /  0mm 0 W/m2
01:14 26.6 °F /  -3 °C 21.1 °F /  -6.1 °C 30.17in /  1021.6hPa NW 0.1mph /  0.2km/h 2mph /  3.2km/h 79.5% 0.00in /  0mm 0 W/m2
01:19 26.4 °F /  -3.1 °C 21.3 °F /  -5.9 °C 30.18in /  1021.9hPa NW 0.2mph /  0.3km/h 3mph /  4.8km/h 80.4% 0.00in /  0mm 0 W/m2
01:24 26.3 °F /  -3.2 °C 21.4 °F /  -5.9 °C 30.18in /  1021.9hPa Calm   3mph /  4.8km/h 81.2% 0.00in /  0mm 0 W/m2
01:29 26.3 °F /  -3.2 °C 21.5 °F /  -5.8 °C 30.19in /  1022.2hPa Calm   3mph /  4.8km/h 82% 0.00in /  0mm 0 W/m2
01:34 26.2 °F /  -3.2 °C 21.7 °F /  -5.7 °C 30.19in /  1022.2hPa Calm   3mph /  4.8km/h 82.9% 0.00in /  0mm 0 W/m2
01:39 26.2 °F /  -3.2 °C 21.8 °F /  -5.7 °C 30.19in /  1022.2hPa Calm     83% 0.00in /  0mm 0 W/m2
01:44 26.2 °F /  -3.2 °C 22 °F /  -5.6 °C 30.19in /  1022.2hPa Calm     84% 0.00in /  0mm 0 W/m2
01:49 26.1 °F /  -3.3 °C 21.9 °F /  -5.6 °C 30.18in /  1021.9hPa Calm     84% 0.00in /  0mm 0 W/m2
01:54 26 °F /  -3.3 °C 21.8 °F /  -5.7 °C 30.18in /  1021.9hPa Calm     84% 0.00in /  0mm 0 W/m2
01:59 25.9 °F /  -3.4 °C 21.9 °F /  -5.6 °C 30.18in /  1021.9hPa Calm     84.4% 0.00in /  0mm 0 W/m2
02:04 25.8 °F /  -3.4 °C 22 °F /  -5.6 °C 30.18in /  1021.9hPa Calm     85% 0.00in /  0mm 0 W/m2
02:09 25.8 °F /  -3.4 °C 21.9 °F /  -5.6 °C 30.17in /  1021.6hPa NW 0.1mph /  0.2km/h 2mph /  3.2km/h 85% 0.00in /  0mm 0 W/m2
02:14 25.6 °F /  -3.6 °C 21.8 °F /  -5.7 °C 30.17in /  1021.6hPa Calm   2mph /  3.2km/h 85% 0.00in /  0mm 0 W/m2
02:19 25.5 °F /  -3.6 °C 21.9 °F /  -5.6 °C 30.17in /  1021.6hPa Calm   2mph /  3.2km/h 85.9% 0.00in /  0mm 0 W/m2
02:24 25.4 °F /  -3.7 °C 21.8 °F /  -5.7 °C 30.18in /  1021.9hPa Calm   2mph /  3.2km/h 86% 0.00in /  0mm 0 W/m2
02:29 25.4 °F /  -3.7 °C 21.8 °F /  -5.7 °C 30.18in /  1021.9hPa NW 0.1mph /  0.2km/h 2mph /  3.2km/h 86% 0.00in /  0mm 0 W/m2
02:34 25.5 °F /  -3.6 °C 22 °F /  -5.6 °C 30.18in /  1021.9hPa Calm   2mph /  3.2km/h 86.3% 0.00in /  0mm 0 W/m2
02:39 25.5 °F /  -3.6 °C 22.2 °F /  -5.4 °C 30.18in /  1021.9hPa Calm     87% 0.00in /  0mm 0 W/m2
02:44 25.5 °F /  -3.6 °C 22.2 °F /  -5.4 °C 30.18in /  1021.9hPa NW 0.1mph /  0.2km/h 2mph /  3.2km/h 87% 0.00in /  0mm 0 W/m2
02:49 25.5 °F /  -3.6 °C 22.2 °F /  -5.4 °C 30.17in /  1021.6hPa Calm   2mph /  3.2km/h 87% 0.00in /  0mm 0 W/m2
02:54 25.5 °F /  -3.6 °C 22.2 °F /  -5.4 °C 30.17in /  1021.6hPa Calm   2mph /  3.2km/h 87% 0.00in /  0mm 0 W/m2
02:59 25.5 °F /  -3.6 °C 22.1 °F /  -5.5 °C 30.17in /  1021.6hPa Calm   2mph /  3.2km/h 86.8% 0.00in /  0mm 0 W/m2
03:04 25.4 °F /  -3.7 °C 21.8 °F /  -5.7 °C 30.17in /  1021.6hPa Calm   2mph /  3.2km/h 86% 0.00in /  0mm 0 W/m2
03:09 25.4 °F /  -3.7 °C 21.8 °F /  -5.7 °C 30.17in /  1021.6hPa Calm     86% 0.00in /  0mm 0 W/m2
03:14 25.3 °F /  -3.7 °C 21.7 °F /  -5.7 °C 30.16in /  1021.2hPa Calm     86% 0.00in /  0mm 0 W/m2
03:19 25.2 °F /  -3.8 °C 21.7 °F /  -5.7 °C 30.15in /  1020.9hPa Calm     86% 0.00in /  0mm 0 W/m2
03:24 25.2 °F /  -3.8 °C 21.7 °F /  -5.7 °C 30.15in /  1020.9hPa Calm     86% 0.00in /  0mm 0 W/m2
03:29 25.3 °F /  -3.7 °C 21.8 °F /  -5.7 °C 30.15in /  1020.9hPa Calm     86.3% 0.00in /  0mm 0 W/m2
03:34 25.3 °F /  -3.7 °C 21.8 °F /  -5.7 °C 30.15in /  1020.9hPa Calm     86.4% 0.00in /  0mm 0 W/m2
03:39 25.2 °F /  -3.8 °C 21.6 °F /  -5.8 °C 30.14in /  1020.5hPa NW 0.4mph /  0.6km/h 2mph /  3.2km/h 86% 0.00in /  0mm 0 W/m2
03:44 25.1 °F /  -3.8 °C 21.6 °F /  -5.8 °C 30.15in /  1020.9hPa NW 0.1mph /  0.2km/h 2mph /  3.2km/h 86% 0.00in /  0mm 0 W/m2
03:49 25.1 °F /  -3.8 °C 21.5 °F /  -5.8 °C 30.15in /  1020.9hPa Calm   2mph /  3.2km/h 86% 0.00in /  0mm 0 W/m2
03:54 25.1 °F /  -3.8 °C 21.5 °F /  -5.8 °C 30.15in /  1020.9hPa Calm   2mph /  3.2km/h 86% 0.00in /  0mm 0 W/m2
03:59 25.1 °F /  -3.8 °C 21.5 °F /  -5.8 °C 30.15in /  1020.9hPa Calm   2mph /  3.2km/h 86% 0.00in /  0mm 0 W/m2
04:00 25.1 °F /  -3.8 °C 21.5 °F /  -5.8 °C 30.14in /  1020.5hPa Calm   2mph /  3.2km/h 86% 0.00in /  0mm 0 W/m2
04:09 25.1 °F /  -3.8 °C 21.5 °F /  -5.8 °C 30.14in /  1020.5hPa Calm     86% 0.00in /  0mm 0 W/m2
04:14 25.1 °F /  -3.8 °C 21.7 °F /  -5.7 °C 30.14in /  1020.5hPa Calm     86.6% 0.00in /  0mm 0 W/m2
04:19 25.2 °F /  -3.8 °C 21.8 °F /  -5.7 °C 30.14in /  1020.5hPa Calm     87% 0.00in /  0mm 0 W/m2
04:24 25.2 °F /  -3.8 °C 21.9 °F /  -5.6 °C 30.14in /  1020.5hPa Calm     87% 0.00in /  0mm 0 W/m2
04:29 25.3 °F /  -3.7 °C 22 °F /  -5.6 °C 30.14in /  1020.5hPa Calm     87% 0.00in /  0mm 0 W/m2
04:34 25.4 °F /  -3.7 °C 22.1 °F /  -5.5 °C 30.14in /  1020.5hPa Calm     87% 0.00in /  0mm 0 W/m2
04:39 25.4 °F /  -3.7 °C 22.1 °F /  -5.5 °C 30.13in /  1020.2hPa Calm     87% 0.00in /  0mm 0 W/m2
04:44 25.4 °F /  -3.7 °C 22.1 °F /  -5.5 °C 30.13in /  1020.2hPa NW 0.2mph /  0.3km/h 2mph /  3.2km/h 87% 0.00in /  0mm 0 W/m2
04:49 25.5 °F /  -3.6 °C 22.2 °F /  -5.4 °C 30.13in /  1020.2hPa Calm   2mph /  3.2km/h 87% 0.00in /  0mm 0 W/m2
04:54 25.5 °F /  -3.6 °C 22.2 °F /  -5.4 °C 30.13in /  1020.2hPa Calm   2mph /  3.2km/h 87% 0.00in /  0mm 0 W/m2
04:59 25.6 °F /  -3.6 °C 22.4 °F /  -5.3 °C 30.13in /  1020.2hPa Calm   2mph /  3.2km/h 87.7% 0.00in /  0mm 0 W/m2
05:04 25.5 °F /  -3.6 °C 22.4 °F /  -5.3 °C 30.13in /  1020.2hPa Calm   2mph /  3.2km/h 87.6% 0.00in /  0mm 0 W/m2
05:09 25.5 °F /  -3.6 °C 22.2 °F /  -5.4 °C 30.12in /  1019.9hPa Calm     87% 0.00in /  0mm 0 W/m2
05:14 25.5 °F /  -3.6 °C 22.4 °F /  -5.3 °C 30.13in /  1020.2hPa Calm     87.9% 0.00in /  0mm 0 W/m2
05:19 25.5 °F /  -3.6 °C 22.4 °F /  -5.3 °C 30.13in /  1020.2hPa Calm     88% 0.00in /  0mm 0 W/m2
05:24 25.4 °F /  -3.7 °C 22.4 °F /  -5.3 °C 30.12in /  1019.9hPa Calm     88% 0.00in /  0mm 0 W/m2
05:29 25.4 °F /  -3.7 °C 22.4 °F /  -5.3 °C 30.13in /  1020.2hPa Calm     88% 0.00in /  0mm 0 W/m2
05:34 25.4 °F /  -3.7 °C 22.4 °F /  -5.3 °C 30.13in /  1020.2hPa NW 0.2mph /  0.3km/h 2mph /  3.2km/h 88% 0.00in /  0mm 0 W/m2
05:39 25.4 °F /  -3.7 °C 22.4 °F /  -5.3 °C 30.12in /  1019.9hPa Calm   2mph /  3.2km/h 88% 0.00in /  0mm 0 W/m2
05:44 25.4 °F /  -3.7 °C 22.4 °F /  -5.3 °C 30.13in /  1020.2hPa Calm   2mph /  3.2km/h 88% 0.00in /  0mm 0 W/m2
05:49 25.4 °F /  -3.7 °C 22.5 °F /  -5.3 °C 30.13in /  1020.2hPa Calm   2mph /  3.2km/h 88.5% 0.00in /  0mm 0 W/m2
05:54 25.4 °F /  -3.7 °C 22.4 °F /  -5.3 °C 30.12in /  1019.9hPa Calm   2mph /  3.2km/h 88.2% 0.00in /  0mm 0 W/m2
05:59 25.3 °F /  -3.7 °C 22.4 °F /  -5.3 °C 30.12in /  1019.9hPa Calm   2mph /  3.2km/h 88.6% 0.00in /  0mm 0 W/m2
06:04 25.3 °F /  -3.7 °C 22.5 °F /  -5.3 °C 30.12in /  1019.9hPa Calm   2mph /  3.2km/h 89% 0.00in /  0mm 0 W/m2
06:09 25.3 °F /  -3.7 °C 22.5 °F /  -5.3 °C 30.12in /  1019.9hPa Calm     89% 0.00in /  0mm 0 W/m2
06:14 25.3 °F /  -3.7 °C 22.5 °F /  -5.3 °C 30.12in /  1019.9hPa Calm     89% 0.00in /  0mm 0 W/m2
06:19 25.2 °F /  -3.8 °C 22.4 °F /  -5.3 °C 30.12in /  1019.9hPa Calm     89% 0.00in /  0mm 0 W/m2
06:24 25.2 °F /  -3.8 °C 22.4 °F /  -5.3 °C 30.13in /  1020.2hPa Calm     89% 0.00in /  0mm 0 W/m2
06:29 25.3 °F /  -3.7 °C 22.5 °F /  -5.3 °C 30.13in /  1020.2hPa Calm     89% 0.00in /  0mm 0 W/m2
06:34 25.3 °F /  -3.7 °C 22.5 °F /  -5.3 °C 30.13in /  1020.2hPa Calm     89% 0.00in /  0mm 0 W/m2
06:39 25.3 °F /  -3.7 °C 22.5 °F /  -5.3 °C 30.13in /  1020.2hPa Calm     89% 0.00in /  0mm 0 W/m2
06:44 25.4 °F /  -3.7 °C 22.6 °F /  -5.2 °C 30.12in /  1019.9hPa Calm     89% 0.00in /  0mm 0 W/m2
06:49 25.4 °F /  -3.7 °C 22.6 °F /  -5.2 °C 30.12in /  1019.9hPa Calm     89% 0.00in /  0mm 0 W/m2
06:54 25.4 °F /  -3.7 °C 22.6 °F /  -5.2 °C 30.13in /  1020.2hPa Calm     89% 0.00in /  0mm 0 W/m2
06:59 25.5 °F /  -3.6 °C 22.9 °F /  -5.1 °C 30.13in /  1020.2hPa Calm     89.6% 0.00in /  0mm 0 W/m2
07:04 25.6 °F /  -3.6 °C 23 °F /  -5 °C 30.13in /  1020.2hPa Calm     90% 0.00in /  0mm 0 W/m2
07:09 25.6 °F /  -3.6 °C 23.1 °F /  -4.9 °C 30.13in /  1020.2hPa Calm     90% 0.00in /  0mm 0 W/m2
07:14 25.6 °F /  -3.6 °C 23.1 °F /  -4.9 °C 30.13in /  1020.2hPa NNW 0.4mph /  0.6km/h 3mph /  4.8km/h 90% 0.00in /  0mm 0 W/m2
07:19 25.6 °F /  -3.6 °C 23 °F /  -5 °C 30.12in /  1019.9hPa Calm   3mph /  4.8km/h 89.6% 0.00in /  0mm 0 W/m2
07:24 25.6 °F /  -3.6 °C 22.9 °F /  -5.1 °C 30.12in /  1019.9hPa NNW 0.1mph /  0.2km/h 3mph /  4.8km/h 89.3% 0.00in /  0mm 0 W/m2
07:29 25.6 °F /  -3.6 °C 22.8 °F /  -5.1 °C 30.12in /  1019.9hPa Calm   3mph /  4.8km/h 89.1% 0.00in /  0mm 0 W/m2
07:34 25.6 °F /  -3.6 °C 23.1 °F /  -4.9 °C 30.13in /  1020.2hPa Calm   3mph /  4.8km/h 90% 0.00in /  0mm 0 W/m2
07:39 25.6 °F /  -3.6 °C 23.1 °F /  -4.9 °C 30.13in /  1020.2hPa Calm   1mph /  1.6km/h 90% 0.00in /  0mm 0 W/m2
07:44 25.7 °F /  -3.5 °C 23.2 °F /  -4.9 °C 30.12in /  1019.9hPa NNW 0.1mph /  0.2km/h 2mph /  3.2km/h 90% 0.00in /  0mm 0 W/m2
07:49 25.7 °F /  -3.5 °C 23.2 °F /  -4.9 °C 30.13in /  1020.2hPa Calm   2mph /  3.2km/h 90% 0.00in /  0mm 0 W/m2
07:54 25.7 °F /  -3.5 °C 23.2 °F /  -4.9 °C 30.13in /  1020.2hPa NNW 0.3mph /  0.5km/h 3mph /  4.8km/h 90% 0.00in /  0mm 0 W/m2
07:59 25.7 °F /  -3.5 °C 23.2 °F /  -4.9 °C 30.13in /  1020.2hPa NNW 0.2mph /  0.3km/h 3mph /  4.8km/h 90% 0.00in /  0mm 0 W/m2
08:04 25.7 °F /  -3.5 °C 23.2 °F /  -4.9 °C 30.12in /  1019.9hPa Calm   3mph /  4.8km/h 90% 0.00in /  0mm 5 W/m2
08:09 25.7 °F /  -3.5 °C 23.2 °F /  -4.9 °C 30.12in /  1019.9hPa Calm     90% 0.00in /  0mm 5 W/m2
08:14 25.8 °F /  -3.4 °C 23.2 °F /  -4.9 °C 30.12in /  1019.9hPa Calm     90% 0.00in /  0mm 7 W/m2
08:19 25.8 °F /  -3.4 °C 23.3 °F /  -4.8 °C 30.12in /  1019.9hPa Calm   1mph /  1.6km/h 90% 0.00in /  0mm 9 W/m2
08:24 25.8 °F /  -3.4 °C 23.3 °F /  -4.8 °C 30.12in /  1019.9hPa Calm   1mph /  1.6km/h 90% 0.00in /  0mm 16 W/m2
08:29 25.8 °F /  -3.4 °C 23.3 °F /  -4.8 °C 30.12in /  1019.9hPa Calm   1mph /  1.6km/h 90% 0.00in /  0mm 16 W/m2
08:34 25.9 °F /  -3.4 °C 23.4 °F /  -4.8 °C 30.12in /  1019.9hPa Calm   1mph /  1.6km/h 90% 0.00in /  0mm 16 W/m2
08:39 25.9 °F /  -3.4 °C 23.4 °F /  -4.8 °C 30.13in /  1020.2hPa NNW 0.3mph /  0.5km/h 3mph /  4.8km/h 90% 0.00in /  0mm 19 W/m2
08:44 25.9 °F /  -3.4 °C 23.4 °F /  -4.8 °C 30.13in /  1020.2hPa North 0.8mph /  1.3km/h 4mph /  6.4km/h 90% 0.00in /  0mm 23 W/m2
08:49 25.9 °F /  -3.4 °C 23.4 °F /  -4.8 °C 30.13in /  1020.2hPa North 0.1mph /  0.2km/h 4mph /  6.4km/h 90% 0.00in /  0mm 19 W/m2
08:54 26 °F /  -3.3 °C 23.5 °F /  -4.7 °C 30.13in /  1020.2hPa Calm   4mph /  6.4km/h 90% 0.00in /  0mm 21 W/m2
08:59 26.1 °F /  -3.3 °C 23.6 °F /  -4.7 °C 30.13in /  1020.2hPa Calm   4mph /  6.4km/h 90% 0.00in /  0mm 21 W/m2
09:04 26.1 °F /  -3.3 °C 23.6 °F /  -4.7 °C 30.13in /  1020.2hPa North 0.2mph /  0.3km/h 4mph /  6.4km/h 90% 0.00in /  0mm 19 W/m2
09:09 26.1 °F /  -3.3 °C 23.6 °F /  -4.7 °C 30.13in /  1020.2hPa Calm   2mph /  3.2km/h 90% 0.00in /  0mm 19 W/m2
09:14 26.1 °F /  -3.3 °C 23.6 °F /  -4.7 °C 30.13in /  1020.2hPa Calm   2mph /  3.2km/h 90% 0.00in /  0mm 21 W/m2
09:19 26 °F /  -3.3 °C 23.5 °F /  -4.7 °C 30.13in /  1020.2hPa North 0.7mph /  1.1km/h 2mph /  3.2km/h 90% 0.00in /  0mm 21 W/m2
09:24 26 °F /  -3.3 °C 23.5 °F /  -4.7 °C 30.13in /  1020.2hPa North 0.8mph /  1.3km/h 4mph /  6.4km/h 90% 0.00in /  0mm 21 W/m2
09:29 26 °F /  -3.3 °C 23.5 °F /  -4.7 °C 30.14in /  1020.5hPa Calm   4mph /  6.4km/h 90% 0.00in /  0mm 16 W/m2
09:34 26.1 °F /  -3.3 °C 23.6 °F /  -4.7 °C 30.14in /  1020.5hPa NNE 1.1mph /  1.8km/h 5mph /  8km/h 90% 0.00in /  0mm 16 W/m2
09:39 26.1 °F /  -3.3 °C 23.6 °F /  -4.7 °C 30.14in /  1020.5hPa NE 1.6mph /  2.6km/h 5mph /  8km/h 90% 0.00in /  0mm 16 W/m2
09:44 26 °F /  -3.3 °C 23.5 °F /  -4.7 °C 30.14in /  1020.5hPa NE 0.5mph /  0.8km/h 5mph /  8km/h 90% 0.00in /  0mm 16 W/m2
09:49 26.1 °F /  -3.3 °C 23.5 °F /  -4.7 °C 30.13in /  1020.2hPa NE 0.9mph /  1.4km/h 5mph /  8km/h 90% 0.00in /  0mm 19 W/m2
09:54 26.1 °F /  -3.3 °C 23.6 °F /  -4.7 °C 30.14in /  1020.5hPa NE 1.9mph /  3.1km/h 7mph /  11.3km/h 90% 0.00in /  0mm 19 W/m2
09:59 26.1 °F /  -3.3 °C 23.6 °F /  -4.7 °C 30.14in /  1020.5hPa NE 1.2mph /  1.9km/h 7mph /  11.3km/h 90% 0.00in /  0mm 14 W/m2
10:04 26.1 °F /  -3.3 °C 23.6 °F /  -4.7 °C 30.14in /  1020.5hPa NE 1.8mph /  2.9km/h 7mph /  11.3km/h 90% 0.00in /  0mm 18 W/m2
10:09 26.1 °F /  -3.3 °C 23.6 °F /  -4.7 °C 30.14in /  1020.5hPa NE 1mph /  1.6km/h 6mph /  9.7km/h 90% 0.00in /  0mm 18 W/m2
10:14 26.1 °F /  -3.3 °C 23.6 °F /  -4.7 °C 30.14in /  1020.5hPa NE 0.8mph /  1.3km/h 6mph /  9.7km/h 90% 0.00in /  0mm 19 W/m2
10:19 26.1 °F /  -3.3 °C 23.6 °F /  -4.7 °C 30.13in /  1020.2hPa NE 0.8mph /  1.3km/h 6mph /  9.7km/h 90% 0.00in /  0mm 19 W/m2
10:24 26.1 °F /  -3.3 °C 23.6 °F /  -4.7 °C 30.13in /  1020.2hPa NE 0.6mph /  1km/h 6mph /  9.7km/h 90% 0.00in /  0mm 21 W/m2
10:29 26 °F /  -3.3 °C 23.2 °F /  -4.9 °C 30.13in /  1020.2hPa NE 1.8mph /  2.9km/h 6mph /  9.7km/h 89% 0.00in /  0mm 21 W/m2
10:34 26 °F /  -3.3 °C 23.2 °F /  -4.9 °C 30.13in /  1020.2hPa NE 0.5mph /  0.8km/h 6mph /  9.7km/h 89% 0.00in /  0mm 19 W/m2
10:39 26.1 °F /  -3.3 °C 23.3 °F /  -4.8 °C 30.13in /  1020.2hPa NE 1.1mph /  1.8km/h 5mph /  8km/h 89% 0.00in /  0mm 19 W/m2
10:44 26.1 °F /  -3.3 °C 23.3 °F /  -4.8 °C 30.13in /  1020.2hPa NE 0.1mph /  0.2km/h 5mph /  8km/h 89% 0.00in /  0mm 21 W/m2
10:49 26.2 °F /  -3.2 °C 23.4 °F /  -4.8 °C 30.12in /  1019.9hPa NE 0.3mph /  0.5km/h 5mph /  8km/h 89% 0.00in /  0mm 30 W/m2
10:54 26.2 °F /  -3.2 °C 23.5 °F /  -4.7 °C 30.12in /  1019.9hPa NE 0.5mph /  0.8km/h 5mph /  8km/h 89% 0.00in /  0mm 28 W/m2
10:59 26.4 °F /  -3.1 °C 23.6 °F /  -4.7 °C 30.12in /  1019.9hPa NE 0.1mph /  0.2km/h 5mph /  8km/h 89% 0.00in /  0mm 19 W/m2
11:04 26.5 °F /  -3.1 °C 24 °F /  -4.4 °C 30.11in /  1019.5hPa NE 0.1mph /  0.2km/h 5mph /  8km/h 90% 0.00in /  0mm 19 W/m2
11:09 26.6 °F /  -3 °C 23.8 °F /  -4.6 °C 30.11in /  1019.5hPa NE 0.3mph /  0.5km/h 3mph /  4.8km/h 89.1% 0.00in /  0mm 25 W/m2
11:14 26.7 °F /  -2.9 °C 23.9 °F /  -4.5 °C 30.10in /  1019.2hPa NE 0.1mph /  0.2km/h 3mph /  4.8km/h 89% 0.00in /  0mm 30 W/m2
11:19 26.8 °F /  -2.9 °C 24 °F /  -4.4 °C 30.10in /  1019.2hPa NE 0.3mph /  0.5km/h 3mph /  4.8km/h 89% 0.00in /  0mm 30 W/m2
11:24 26.9 °F /  -2.8 °C 24.1 °F /  -4.4 °C 30.09in /  1018.8hPa Calm   3mph /  4.8km/h 89% 0.00in /  0mm 37 W/m2
11:29 26.9 °F /  -2.8 °C 24.1 °F /  -4.4 °C 30.09in /  1018.8hPa Calm   3mph /  4.8km/h 89% 0.00in /  0mm 39 W/m2
11:34 27 °F /  -2.8 °C 24.2 °F /  -4.3 °C 30.09in /  1018.8hPa NE 0.5mph /  0.8km/h 3mph /  4.8km/h 89% 0.00in /  0mm 33 W/m2
11:39 27 °F /  -2.8 °C 24 °F /  -4.4 °C 30.08in /  1018.5hPa NE 0.3mph /  0.5km/h 3mph /  4.8km/h 88.2% 0.00in /  0mm 44 W/m2
11:44 27 °F /  -2.8 °C 24 °F /  -4.4 °C 30.08in /  1018.5hPa NE 0.5mph /  0.8km/h 3mph /  4.8km/h 88% 0.00in /  0mm 47 W/m2
11:49 27.2 °F /  -2.7 °C 24.2 °F /  -4.3 °C 30.08in /  1018.5hPa NE 0.3mph /  0.5km/h 3mph /  4.8km/h 88% 0.00in /  0mm 35 W/m2
11:54 27.4 °F /  -2.6 °C 24.3 °F /  -4.3 °C 30.08in /  1018.5hPa NE 0.2mph /  0.3km/h 3mph /  4.8km/h 88% 0.00in /  0mm 37 W/m2
11:59 27.5 °F /  -2.5 °C 24.5 °F /  -4.2 °C 30.08in /  1018.5hPa NE 0.2mph /  0.3km/h 3mph /  4.8km/h 88% 0.00in /  0mm 39 W/m2
12:00 27.6 °F /  -2.4 °C 24.5 °F /  -4.2 °C 30.08in /  1018.5hPa NE 2mph /  3.2km/h 3mph /  4.8km/h 88% 0.00in /  0mm 32 W/m2
12:09 27.6 °F /  -2.4 °C 24.2 °F /  -4.3 °C 30.07in /  1018.2hPa NE 0.8mph /  1.3km/h 4mph /  6.4km/h 87% 0.00in /  0mm 53 W/m2
12:14 27.6 °F /  -2.4 °C 24.3 °F /  -4.3 °C 30.08in /  1018.5hPa NE 0.5mph /  0.8km/h 4mph /  6.4km/h 87% 0.00in /  0mm 40 W/m2
12:19 27.7 °F /  -2.4 °C 24.4 °F /  -4.2 °C 30.08in /  1018.5hPa NE 0.8mph /  1.3km/h 4mph /  6.4km/h 87% 0.00in /  0mm 39 W/m2
12:24 27.8 °F /  -2.3 °C 24.5 °F /  -4.2 °C 30.08in /  1018.5hPa NE 0.3mph /  0.5km/h 4mph /  6.4km/h 87% 0.00in /  0mm 35 W/m2
12:29 27.9 °F /  -2.3 °C 24.5 °F /  -4.2 °C 30.08in /  1018.5hPa NE 1.3mph /  2.1km/h 4mph /  6.4km/h 86.8% 0.00in /  0mm 39 W/m2
12:34 27.9 °F /  -2.3 °C 24.3 °F /  -4.3 °C 30.08in /  1018.5hPa NE 1.4mph /  2.3km/h 4mph /  6.4km/h 86% 0.00in /  0mm 40 W/m2
12:39 28 °F /  -2.2 °C 24.3 °F /  -4.3 °C 30.08in /  1018.5hPa NE 0.7mph /  1.1km/h 4mph /  6.4km/h 86% 0.00in /  0mm 40 W/m2
12:44 28.1 °F /  -2.2 °C 24.4 °F /  -4.2 °C 30.08in /  1018.5hPa Calm   4mph /  6.4km/h 86% 0.00in /  0mm 33 W/m2
12:49 28.1 °F /  -2.2 °C 24.4 °F /  -4.2 °C 30.08in /  1018.5hPa NE 0.9mph /  1.4km/h 4mph /  6.4km/h 86% 0.00in /  0mm 30 W/m2
12:54 28.1 °F /  -2.2 °C 24.5 °F /  -4.2 °C 30.08in /  1018.5hPa NE 0.3mph /  0.5km/h 4mph /  6.4km/h 86% 0.00in /  0mm 30 W/m2
12:59 28.1 °F /  -2.2 °C 24.5 °F /  -4.2 °C 30.06in /  1017.8hPa Calm   4mph /  6.4km/h 86% 0.00in /  0mm 32 W/m2
13:04 28.2 °F /  -2.1 °C 24.6 °F /  -4.1 °C 30.07in /  1018.2hPa NE 0.3mph /  0.5km/h 4mph /  6.4km/h 86% 0.00in /  0mm 32 W/m2
13:09 28.2 °F /  -2.1 °C 24.5 °F /  -4.2 °C 30.07in /  1018.2hPa Calm   2mph /  3.2km/h 86% 0.00in /  0mm 28 W/m2
13:14 28.2 °F /  -2.1 °C 24.5 °F /  -4.2 °C 30.06in /  1017.8hPa Calm   2mph /  3.2km/h 86% 0.00in /  0mm 33 W/m2
13:19 28.2 °F /  -2.1 °C 24.3 °F /  -4.3 °C 30.06in /  1017.8hPa Calm   2mph /  3.2km/h 85.1% 0.00in /  0mm 42 W/m2
13:24 28.3 °F /  -2.1 °C 24.6 °F /  -4.1 °C 30.05in /  1017.5hPa NE 0.7mph /  1.1km/h 4mph /  6.4km/h 85.9% 0.00in /  0mm 47 W/m2
13:29 28.3 °F /  -2.1 °C 24.4 °F /  -4.2 °C 30.05in /  1017.5hPa NE 0.8mph /  1.3km/h 4mph /  6.4km/h 85% 0.00in /  0mm 47 W/m2
13:34 28.4 °F /  -2 °C 24.5 °F /  -4.2 °C 30.04in /  1017.2hPa NE 0.1mph /  0.2km/h 4mph /  6.4km/h 85% 0.00in /  0mm 47 W/m2
13:39 28.6 °F /  -1.9 °C 24.6 °F /  -4.1 °C 30.04in /  1017.2hPa NE 0.8mph /  1.3km/h 4mph /  6.4km/h 85% 0.00in /  0mm 54 W/m2
13:44 28.7 °F /  -1.8 °C 24.8 °F /  -4 °C 30.04in /  1017.2hPa NE 0.9mph /  1.4km/h 4mph /  6.4km/h 85% 0.00in /  0mm 70 W/m2
13:49 28.9 °F /  -1.7 °C 25 °F /  -3.9 °C 30.03in /  1016.8hPa NE 1mph /  1.6km/h 4mph /  6.4km/h 85% 0.00in /  0mm 69 W/m2
13:54 29 °F /  -1.7 °C 25.1 °F /  -3.8 °C 30.03in /  1016.8hPa NE 1mph /  1.6km/h 5mph /  8km/h 85% 0.00in /  0mm 54 W/m2
13:59 29.2 °F /  -1.6 °C 25.2 °F /  -3.8 °C 30.03in /  1016.8hPa NE 0.3mph /  0.5km/h 5mph /  8km/h 85% 0.00in /  0mm 51 W/m2
14:04 29.3 °F /  -1.5 °C 25.3 °F /  -3.7 °C 30.03in /  1016.8hPa NE 1.3mph /  2.1km/h 6mph /  9.7km/h 84.8% 0.00in /  0mm 42 W/m2
14:09 29.3 °F /  -1.5 °C 25 °F /  -3.9 °C 30.03in /  1016.8hPa NE 0.2mph /  0.3km/h 6mph /  9.7km/h 84% 0.00in /  0mm 42 W/m2
14:14 29.3 °F /  -1.5 °C 25.1 °F /  -3.8 °C 30.03in /  1016.8hPa NE 0.9mph /  1.4km/h 6mph /  9.7km/h 84% 0.00in /  0mm 37 W/m2
14:19 29.3 °F /  -1.5 °C 25.1 °F /  -3.8 °C 30.03in /  1016.8hPa Calm   6mph /  9.7km/h 84% 0.00in /  0mm 35 W/m2
14:24 29.3 °F /  -1.5 °C 25.1 °F /  -3.8 °C 30.03in /  1016.8hPa Calm   6mph /  9.7km/h 84% 0.00in /  0mm 32 W/m2
14:29 29.3 °F /  -1.5 °C 25.1 °F /  -3.8 °C 30.02in /  1016.5hPa NE 0.1mph /  0.2km/h 6mph /  9.7km/h 84% 0.00in /  0mm 32 W/m2
14:34 29.4 °F /  -1.4 °C 25.1 °F /  -3.8 °C 30.03in /  1016.8hPa NE 0.4mph /  0.6km/h 6mph /  9.7km/h 84% 0.00in /  0mm 25 W/m2
14:39 29.3 °F /  -1.5 °C 25.1 °F /  -3.8 °C 30.04in /  1017.2hPa Calm   3mph /  4.8km/h 84% 0.00in /  0mm 21 W/m2
14:44 29.2 °F /  -1.6 °C 25 °F /  -3.9 °C 30.05in /  1017.5hPa NE 0.5mph /  0.8km/h 3mph /  4.8km/h 83.8% 0.00in /  0mm 21 W/m2
14:49 29.3 °F /  -1.5 °C 25.1 °F /  -3.8 °C 30.05in /  1017.5hPa NE 1.1mph /  1.8km/h 4mph /  6.4km/h 84% 0.00in /  0mm 23 W/m2
14:54 29.3 °F /  -1.5 °C 25.1 °F /  -3.8 °C 30.05in /  1017.5hPa Calm   4mph /  6.4km/h 84% 0.00in /  0mm 21 W/m2
14:59 29.3 °F /  -1.5 °C 25.1 °F /  -3.8 °C 30.06in /  1017.8hPa NE 0.7mph /  1.1km/h 5mph /  8km/h 84% 0.00in /  0mm 18 W/m2
15:04 29.2 °F /  -1.6 °C 25 °F /  -3.9 °C 30.07in /  1018.2hPa NE 1.2mph /  1.9km/h 5mph /  8km/h 84% 0.00in /  0mm 16 W/m2
15:09 29.2 °F /  -1.6 °C 25 °F /  -3.9 °C 30.07in /  1018.2hPa NE 1.1mph /  1.8km/h 4mph /  6.4km/h 84% 0.00in /  0mm 11 W/m2
15:14 29.2 °F /  -1.6 °C 25 °F /  -3.9 °C 30.06in /  1017.8hPa NE 0.3mph /  0.5km/h 4mph /  6.4km/h 84% 0.00in /  0mm 12 W/m2
15:19 29.2 °F /  -1.6 °C 25 °F /  -3.9 °C 30.06in /  1017.8hPa Calm   4mph /  6.4km/h 84% 0.00in /  0mm 12 W/m2
15:24 29.3 °F /  -1.5 °C 25.1 °F /  -3.8 °C 30.07in /  1018.2hPa NE 0.3mph /  0.5km/h 4mph /  6.4km/h 84.2% 0.00in /  0mm 9 W/m2
15:29 29.3 °F /  -1.5 °C 25.2 °F /  -3.8 °C 30.07in /  1018.2hPa NE 0.1mph /  0.2km/h 4mph /  6.4km/h 84.5% 0.00in /  0mm 9 W/m2
15:34 29.3 °F /  -1.5 °C 25.1 °F /  -3.8 °C 30.07in /  1018.2hPa NE 1mph /  1.6km/h 4mph /  6.4km/h 84.1% 0.00in /  0mm 9 W/m2
15:39 29.3 °F /  -1.5 °C 25 °F /  -3.9 °C 30.06in /  1017.8hPa NE 0.5mph /  0.8km/h 3mph /  4.8km/h 84% 0.00in /  0mm 9 W/m2
15:44 29.2 °F /  -1.6 °C 25 °F /  -3.9 °C 30.05in /  1017.5hPa Calm   3mph /  4.8km/h 84% 0.00in /  0mm 9 W/m2
15:49 29.1 °F /  -1.6 °C 24.8 °F /  -4 °C 30.05in /  1017.5hPa NE 0.7mph /  1.1km/h 3mph /  4.8km/h 84% 0.00in /  0mm 11 W/m2
15:54 29 °F /  -1.7 °C 24.8 °F /  -4 °C 30.05in /  1017.5hPa NE 0.6mph /  1km/h 4mph /  6.4km/h 84% 0.00in /  0mm 11 W/m2
15:59 28.9 °F /  -1.7 °C 24.7 °F /  -4.1 °C 30.05in /  1017.5hPa NE 0.4mph /  0.6km/h 4mph /  6.4km/h 84% 0.00in /  0mm 5 W/m2
16:00 29 °F /  -1.7 °C 24.8 °F /  -4 °C 30.04in /  1017.2hPa Calm   4mph /  6.4km/h 84% 0.00in /  0mm 5 W/m2
16:09 28.9 °F /  -1.7 °C 24.7 °F /  -4.1 °C 30.05in /  1017.5hPa Calm     84% 0.00in /  0mm 0 W/m2
16:14 28.9 °F /  -1.7 °C 24.7 °F /  -4.1 °C 30.05in /  1017.5hPa Calm   1mph /  1.6km/h 84% 0.00in /  0mm 0 W/m2
16:19 28.9 °F /  -1.7 °C 24.7 °F /  -4.1 °C 30.05in /  1017.5hPa Calm   1mph /  1.6km/h 84% 0.00in /  0mm 0 W/m2
16:24 28.8 °F /  -1.8 °C 24.6 °F /  -4.1 °C 30.05in /  1017.5hPa Calm   1mph /  1.6km/h 84% 0.00in /  0mm 0 W/m2
16:29 28.8 °F /  -1.8 °C 24.6 °F /  -4.1 °C 30.04in /  1017.2hPa Calm   1mph /  1.6km/h 84% 0.00in /  0mm 0 W/m2
16:34 28.8 °F /  -1.8 °C 24.6 °F /  -4.1 °C 30.04in /  1017.2hPa NE 0.5mph /  0.8km/h 4mph /  6.4km/h 84% 0.00in /  0mm 0 W/m2
16:39 28.8 °F /  -1.8 °C 24.9 °F /  -3.9 °C 30.04in /  1017.2hPa NE 0.4mph /  0.6km/h 4mph /  6.4km/h 85% 0.00in /  0mm 0 W/m2
16:44 28.8 °F /  -1.8 °C 24.9 °F /  -3.9 °C 30.03in /  1016.8hPa NE 0.1mph /  0.2km/h 4mph /  6.4km/h 85% 0.00in /  0mm 0 W/m2
16:49 28.8 °F /  -1.8 °C 24.9 °F /  -3.9 °C 30.03in /  1016.8hPa Calm   4mph /  6.4km/h 85% 0.00in /  0mm 0 W/m2
16:54 28.7 °F /  -1.8 °C 24.6 °F /  -4.1 °C 30.03in /  1016.8hPa Calm   4mph /  6.4km/h 84.3% 0.00in /  0mm 0 W/m2
16:59 28.7 °F /  -1.8 °C 24.5 °F /  -4.2 °C 30.03in /  1016.8hPa NE 0.1mph /  0.2km/h 4mph /  6.4km/h 84% 0.00in /  0mm 0 W/m2
17:04 28.6 °F /  -1.9 °C 24.4 °F /  -4.2 °C 30.02in /  1016.5hPa Calm   4mph /  6.4km/h 84% 0.00in /  0mm 0 W/m2
17:09 28.5 °F /  -1.9 °C 24.3 °F /  -4.3 °C 30.02in /  1016.5hPa Calm     84% 0.00in /  0mm 0 W/m2
17:14 28.5 °F /  -1.9 °C 24.5 °F /  -4.2 °C 30.02in /  1016.5hPa Calm     84.8% 0.00in /  0mm 0 W/m2
17:19 28.5 °F /  -1.9 °C 24.6 °F /  -4.1 °C 30.02in /  1016.5hPa NE 0.1mph /  0.2km/h 2mph /  3.2km/h 85% 0.00in /  0mm 0 W/m2
17:24 28.5 °F /  -1.9 °C 24.5 °F /  -4.2 °C 30.01in /  1016.1hPa Calm   2mph /  3.2km/h 85% 0.00in /  0mm 0 W/m2
17:29 28.4 °F /  -2 °C 24.5 °F /  -4.2 °C 30.01in /  1016.1hPa Calm   2mph /  3.2km/h 85% 0.00in /  0mm 0 W/m2
17:34 28.4 °F /  -2 °C 24.4 °F /  -4.2 °C 30.01in /  1016.1hPa Calm   2mph /  3.2km/h 85% 0.00in /  0mm 0 W/m2
17:39 28.3 °F /  -2.1 °C 24.4 °F /  -4.2 °C 30.01in /  1016.1hPa Calm     85% 0.00in /  0mm 0 W/m2
17:44 28.4 °F /  -2 °C 24.5 °F /  -4.2 °C 30.01in /  1016.1hPa Calm     85% 0.00in /  0mm 0 W/m2
17:49 28.4 °F /  -2 °C 24.4 °F /  -4.2 °C 30.01in /  1016.1hPa Calm     85% 0.00in /  0mm 0 W/m2
17:54 28.4 °F /  -2 °C 24.7 °F /  -4.1 °C 30.01in /  1016.1hPa Calm     85.8% 0.00in /  0mm 0 W/m2
17:59 28.4 °F /  -2 °C 24.8 °F /  -4 °C 30.01in /  1016.1hPa Calm     86% 0.00in /  0mm 0 W/m2
18:04 28.4 °F /  -2 °C 24.8 °F /  -4 °C 30.00in /  1015.8hPa Calm     86% 0.00in /  0mm 0 W/m2
18:09 28.4 °F /  -2 °C 24.8 °F /  -4 °C 30.00in /  1015.8hPa Calm     86% 0.00in /  0mm 0 W/m2
18:14 28.4 °F /  -2 °C 24.8 °F /  -4 °C 30.00in /  1015.8hPa Calm     86% 0.00in /  0mm 0 W/m2
18:19 28.4 °F /  -2 °C 24.8 °F /  -4 °C 30.00in /  1015.8hPa Calm     86% 0.00in /  0mm 0 W/m2
18:24 28.3 °F /  -2.1 °C 24.7 °F /  -4.1 °C 30.01in /  1016.1hPa Calm     86% 0.00in /  0mm 0 W/m2
18:29 28.4 °F /  -2 °C 24.7 °F /  -4.1 °C 30.01in /  1016.1hPa Calm     86% 0.00in /  0mm 0 W/m2
18:34 28.4 °F /  -2 °C 24.8 °F /  -4 °C 30.01in /  1016.1hPa Calm     86% 0.00in /  0mm 0 W/m2
18:39 28.5 °F /  -1.9 °C 25 °F /  -3.9 °C 30.02in /  1016.5hPa Calm     86.4% 0.00in /  0mm 0 W/m2
18:44 28.6 °F /  -1.9 °C 25.1 °F /  -3.8 °C 30.02in /  1016.5hPa Calm   1mph /  1.6km/h 86.6% 0.00in /  0mm 0 W/m2
18:49 28.7 °F /  -1.8 °C 25.3 °F /  -3.7 °C 30.02in /  1016.5hPa Calm   1mph /  1.6km/h 87% 0.00in /  0mm 0 W/m2
18:54 28.7 °F /  -1.8 °C 25.2 °F /  -3.8 °C 30.03in /  1016.8hPa Calm   1mph /  1.6km/h 86.7% 0.00in /  0mm 0 W/m2
18:59 28.8 °F /  -1.8 °C 25.4 °F /  -3.7 °C 30.03in /  1016.8hPa Calm   1mph /  1.6km/h 87% 0.00in /  0mm 0 W/m2
19:04 28.7 °F /  -1.8 °C 25.2 °F /  -3.8 °C 30.02in /  1016.5hPa Calm   1mph /  1.6km/h 86.2% 0.00in /  0mm 0 W/m2
19:09 28.7 °F /  -1.8 °C 25.1 °F /  -3.8 °C 30.02in /  1016.5hPa Calm     86% 0.00in /  0mm 0 W/m2
19:14 28.7 °F /  -1.8 °C 25.2 °F /  -3.8 °C 30.02in /  1016.5hPa Calm     86.5% 0.00in /  0mm 0 W/m2
19:19 28.7 °F /  -1.8 °C 25.3 °F /  -3.7 °C 30.02in /  1016.5hPa Calm     87% 0.00in /  0mm 0 W/m2
19:24 28.7 °F /  -1.8 °C 25.3 °F /  -3.7 °C 30.01in /  1016.1hPa Calm     87% 0.00in /  0mm 0 W/m2
19:29 28.7 °F /  -1.8 °C 25.2 °F /  -3.8 °C 30.02in /  1016.5hPa Calm     86.5% 0.00in /  0mm 0 W/m2
19:33 28.7 °F /  -1.8 °C 25.3 °F /  -3.7 °C 30.01in /  1016.1hPa Calm     86.7% 0.00in /  0mm 0 W/m2
Hartford County Weather
Compliments of Weather Underground - 2 mb